KSNS/SNS METAR and TAF weather

Enter ICAO airport designator
Station Type Date Time Source
KSNS METAR 2023/02/05 23:53 UTC NOAA

KSNS 052353Z 29015G23KT 10SM FEW024 BKN050 12/07 A3026 RMK AO2 WSHFT 2242 RAE15 SLP256 P0000 60013 T01170072 10144 20100 55001


Station Type Date Time Source
KSNS Decoded METAR 2023/02/05 23:53 UTC NOAA

SALINAS MUNICIPAL AIRPORT, CA, United States (KSNS) 36-40N 121-36W 30M
Feb 05, 2023 - 06:53 PM EST / 2023.02.05 2353 UTC
Wind: from the WNW (290 degrees) at 17 MPH (15 KT) gusting to 26 MPH (23 KT):0
Visibility: 10 mile(s):0
Sky conditions: mostly cloudy
Precipitation last hour: A trace
Temperature: 53.1 F (11.7 C)
Dew Point: 45.0 F (7.2 C)
Relative Humidity: 73%
Pressure (altimeter): 30.26 in. Hg (1024 hPa)
Pressure tendency: 0.00 inches (0.1 hPa) lower than three hours ago
ob: KSNS 052353Z 29015G23KT 10SM FEW024 BKN050 12/07 A3026 RMK AO2 WSHFT 2242 RAE15 SLP256 P0000 60013 T01170072 10144 20100 55001
cycle: 0

Station Type Date Time Source
KSNS TAF 2023/02/05 19:09 UTC NOAA

TAF
AMD KSNS 051905Z 0519/0618 27012KT 6SM -SHRA SCT030 BKN050
TEMPO 0519/0522 3SM SHRA
FM052200 29015G24KT P6SM VCSH BKN045
FM060200 32012KT P6SM SCT030 SCT100
FM060800 30006KT P6SM FEW100
FM061700 33006KT P6SM SKC

Example: see airport list